sensor_id;sensor_type;location;lat;lon;timestamp;pressure;altitude;pressure_sealevel;temperature;humidity
7168;BME280;3625;51.762;14.320;2023-01-30T00:02:08;100679.31;;;0.92;99.94
7168;BME280;3625;51.762;14.320;2023-01-30T00:04:49;100683.63;;;0.92;99.57
7168;BME280;3625;51.762;14.320;2023-01-30T00:07:29;100659.34;;;0.93;99.33
7168;BME280;3625;51.762;14.320;2023-01-30T00:10:00;100641.88;;;0.86;99.40
7168;BME280;3625;51.762;14.320;2023-01-30T00:12:34;100640.91;;;0.82;99.37
7168;BME280;3625;51.762;14.320;2023-01-30T00:15:13;100643.47;;;0.81;99.62
7168;BME280;3625;51.762;14.320;2023-01-30T00:18:02;100653.84;;;0.78;99.76
7168;BME280;3625;51.762;14.320;2023-01-30T00:20:35;100633.88;;;0.78;99.29
7168;BME280;3625;51.762;14.320;2023-01-30T00:23:08;100641.69;;;0.78;99.18
7168;BME280;3625;51.762;14.320;2023-01-30T00:25:48;100631.19;;;0.73;99.44
7168;BME280;3625;51.762;14.320;2023-01-30T00:28:32;100632.16;;;0.77;99.63
7168;BME280;3625;51.762;14.320;2023-01-30T00:31:10;100623.38;;;0.73;100.00
7168;BME280;3625;51.762;14.320;2023-01-30T00:33:51;100612.03;;;0.71;100.00
7168;BME280;3625;51.762;14.320;2023-01-30T00:36:23;100607.72;;;0.72;100.00
7168;BME280;3625;51.762;14.320;2023-01-30T00:38:58;100608.53;;;0.69;100.00
7168;BME280;3625;51.762;14.320;2023-01-30T00:41:31;100618.09;;;0.69;100.00
7168;BME280;3625;51.762;14.320;2023-01-30T00:44:15;100610.31;;;0.72;100.00
7168;BME280;3625;51.762;14.320;2023-01-30T00:47:02;100605.97;;;0.71;100.00
7168;BME280;3625;51.762;14.320;2023-01-30T00:49:42;100597.28;;;0.69;100.00
7168;BME280;3625;51.762;14.320;2023-01-30T00:52:16;100583.56;;;0.78;100.00
7168;BME280;3625;51.762;14.320;2023-01-30T00:54:45;100581.78;;;0.77;100.00
7168;BME280;3625;51.762;14.320;2023-01-30T00:57:16;100583.59;;;0.81;100.00
7168;BME280;3625;51.762;14.320;2023-01-30T00:59:45;100566.31;;;0.84;100.00
7168;BME280;3625;51.762;14.320;2023-01-30T01:02:16;100560.22;;;0.84;100.00
7168;BME280;3625;51.762;14.320;2023-01-30T01:04:49;100562.06;;;0.89;100.00
7168;BME280;3625;51.762;14.320;2023-01-30T01:07:24;100562.00;;;0.88;100.00
7168;BME280;3625;51.762;14.320;2023-01-30T01:09:53;100541.16;;;0.85;100.00
7168;BME280;3625;51.762;14.320;2023-01-30T01:12:32;100541.19;;;0.88;100.00
7168;BME280;3625;51.762;14.320;2023-01-30T01:15:09;100545.50;;;0.86;100.00
7168;BME280;3625;51.762;14.320;2023-01-30T01:17:38;100530.72;;;0.85;100.00
7168;BME280;3625;51.762;14.320;2023-01-30T01:20:11;100518.63;;;0.88;100.00
7168;BME280;3625;51.762;14.320;2023-01-30T01:22:40;100512.41;;;0.80;100.00
7168;BME280;3625;51.762;14.320;2023-01-30T01:25:12;100503.81;;;0.84;100.00
7168;BME280;3625;51.762;14.320;2023-01-30T01:27:41;100496.00;;;0.84;100.00
7168;BME280;3625;51.762;14.320;2023-01-30T01:30:11;100494.28;;;0.85;100.00
7168;BME280;3625;51.762;14.320;2023-01-30T01:32:40;100496.06;;;0.89;100.00
7168;BME280;3625;51.762;14.320;2023-01-30T01:35:15;100486.53;;;0.89;100.00
7168;BME280;3625;51.762;14.320;2023-01-30T01:37:47;100472.59;;;0.87;100.00
7168;BME280;3625;51.762;14.320;2023-01-30T01:40:19;100403.50;;;0.55;100.00
7168;BME280;3625;51.762;14.320;2023-01-30T01:43:14;100437.00;;;0.85;100.00
7168;BME280;3625;51.762;14.320;2023-01-30T01:45:48;100317.72;;;0.08;100.00
7168;BME280;3625;51.762;14.320;2023-01-30T01:48:25;100424.72;;;0.78;100.00
7168;BME280;3625;51.762;14.320;2023-01-30T01:51:08;100330.25;;;0.32;100.00
7168;BME280;3625;51.762;14.320;2023-01-30T01:53:44;100386.31;;;0.64;100.00
7168;BME280;3625;51.762;14.320;2023-01-30T01:56:18;100346.19;;;0.50;99.93
7168;BME280;3625;51.762;14.320;2023-01-30T01:58:59;100370.78;;;0.70;100.00
7168;BME280;3625;51.762;14.320;2023-01-30T02:01:45;100392.53;;;0.74;100.00
7168;BME280;3625;51.762;14.320;2023-01-30T02:04:15;100387.38;;;0.75;100.00
7168;BME280;3625;51.762;14.320;2023-01-30T02:07:07;100391.72;;;0.77;100.00
7168;BME280;3625;51.762;14.320;2023-01-30T02:09:37;100369.19;;;0.80;100.00
7168;BME280;3625;51.762;14.320;2023-01-30T02:12:08;100357.94;;;0.81;100.00
7168;BME280;3625;51.762;14.320;2023-01-30T02:14:42;100294.91;;;0.46;99.96
7168;BME280;3625;51.762;14.320;2023-01-30T02:17:28;100339.81;;;0.89;99.30
7168;BME280;3625;51.762;14.320;2023-01-30T02:20:03;100334.47;;;0.80;99.57
7168;BME280;3625;51.762;14.320;2023-01-30T02:29:31;100364.97;;;0.85;100.00
7168;BME280;3625;51.762;14.320;2023-01-30T02:32:13;100374.63;;;0.92;100.00
7168;BME280;3625;51.762;14.320;2023-01-30T02:34:58;100370.28;;;0.93;100.00
7168;BME280;3625;51.762;14.320;2023-01-30T02:37:46;100354.59;;;0.90;99.81
7168;BME280;3625;51.762;14.320;2023-01-30T02:40:38;100345.03;;;0.89;100.00
7168;BME280;3625;51.762;14.320;2023-01-30T02:43:23;100333.78;;;0.91;100.00
7168;BME280;3625;51.762;14.320;2023-01-30T02:46:11;100332.97;;;0.94;100.00
7168;BME280;3625;51.762;14.320;2023-01-30T02:48:53;100285.72;;;0.68;100.00
7168;BME280;3625;51.762;14.320;2023-01-30T02:51:29;100250.06;;;0.62;100.00
7168;BME280;3625;51.762;14.320;2023-01-30T02:54:01;100294.81;;;0.97;100.00
7168;BME280;3625;51.762;14.320;2023-01-30T02:56:47;100280.13;;;1.02;100.00
7168;BME280;3625;51.762;14.320;2023-01-30T02:59:28;99924.53;;;-0.95;100.00
7168;BME280;3625;51.762;14.320;2023-01-30T03:02:31;100183.28;;;0.64;100.00
7168;BME280;3625;51.762;14.320;2023-01-30T03:05:33;99958.81;;;-0.60;100.00
7168;BME280;3625;51.762;14.320;2023-01-30T03:08:22;99956.22;;;-0.60;100.00
7168;BME280;3625;51.762;14.320;2023-01-30T03:11:01;100212.47;;;1.08;100.00
7168;BME280;3625;51.762;14.320;2023-01-30T03:13:43;100020.28;;;0.02;100.00
7168;BME280;3625;51.762;14.320;2023-01-30T03:16:24;100209.00;;;1.08;100.00
7168;BME280;3625;51.762;14.320;2023-01-30T03:19:00;100209.84;;;1.07;100.00
7168;BME280;3625;51.762;14.320;2023-01-30T03:21:33;100190.78;;;1.08;100.00
7168;BME280;3625;51.762;14.320;2023-01-30T03:24:06;100196.03;;;1.11;100.00
7168;BME280;3625;51.762;14.320;2023-01-30T03:26:43;100008.16;;;0.02;100.00
7168;BME280;3625;51.762;14.320;2023-01-30T03:29:24;100168.19;;;1.08;100.00
7168;BME280;3625;51.762;14.320;2023-01-30T03:31:53;100171.72;;;1.13;100.00
7168;BME280;3625;51.762;14.320;2023-01-30T03:34:22;100175.25;;;1.17;100.00
7168;BME280;3625;51.762;14.320;2023-01-30T03:37:10;100167.38;;;1.14;100.00
7168;BME280;3625;51.762;14.320;2023-01-30T03:39:40;100166.59;;;1.20;100.00
7168;BME280;3625;51.762;14.320;2023-01-30T03:42:21;100163.13;;;1.21;100.00
7168;BME280;3625;51.762;14.320;2023-01-30T03:44:55;100158.00;;;1.28;100.00
7168;BME280;3625;51.762;14.320;2023-01-30T03:47:25;100173.59;;;1.25;100.00
7168;BME280;3625;51.762;14.320;2023-01-30T03:49:55;100163.22;;;1.28;100.00
7168;BME280;3625;51.762;14.320;2023-01-30T03:52:28;100154.50;;;1.26;100.00
7168;BME280;3625;51.762;14.320;2023-01-30T03:54:57;100148.44;;;1.30;100.00
7168;BME280;3625;51.762;14.320;2023-01-30T03:57:32;100134.56;;;1.31;100.00
7168;BME280;3625;51.762;14.320;2023-01-30T04:00:14;100135.38;;;1.26;100.00
7168;BME280;3625;51.762;14.320;2023-01-30T04:02:45;100136.19;;;1.19;100.00
7168;BME280;3625;51.762;14.320;2023-01-30T04:05:16;100125.69;;;1.09;100.00
7168;BME280;3625;51.762;14.320;2023-01-30T04:07:59;100124.75;;;1.06;100.00
7168;BME280;3625;51.762;14.320;2023-01-30T04:10:34;100122.13;;;1.03;100.00
7168;BME280;3625;51.762;14.320;2023-01-30T04:13:07;100129.09;;;1.05;100.00
7168;BME280;3625;51.762;14.320;2023-01-30T04:15:39;100124.84;;;1.12;100.00
7168;BME280;3625;51.762;14.320;2023-01-30T04:18:31;100129.19;;;1.14;100.00
7168;BME280;3625;51.762;14.320;2023-01-30T04:21:12;100110.03;;;1.09;100.00
7168;BME280;3625;51.762;14.320;2023-01-30T04:23:42;100102.22;;;1.08;100.00
7168;BME280;3625;51.762;14.320;2023-01-30T04:26:23;100103.09;;;1.08;100.00
7168;BME280;3625;51.762;14.320;2023-01-30T04:29:01;100096.94;;;1.02;100.00
7168;BME280;3625;51.762;14.320;2023-01-30T04:31:34;100094.28;;;0.94;100.00
7168;BME280;3625;51.762;14.320;2023-01-30T04:34:27;100077.78;;;0.94;100.00
7168;BME280;3625;51.762;14.320;2023-01-30T04:37:17;100068.22;;;0.94;100.00
7168;BME280;3625;51.762;14.320;2023-01-30T04:40:06;100071.72;;;0.98;100.00
7168;BME280;3625;51.762;14.320;2023-01-30T04:42:42;100062.19;;;1.00;100.00
7168;BME280;3625;51.762;14.320;2023-01-30T04:45:54;100074.38;;;1.01;100.00
7168;BME280;3625;51.762;14.320;2023-01-30T04:48:26;100050.00;;;0.96;100.00
7168;BME280;3625;51.762;14.320;2023-01-30T04:51:24;99907.00;;;0.23;100.00
7168;BME280;3625;51.762;14.320;2023-01-30T04:54:15;100035.34;;;1.07;100.00
7168;BME280;3625;51.762;14.320;2023-01-30T04:56:47;100038.88;;;1.13;100.00
7168;BME280;3625;51.762;14.320;2023-01-30T04:59:18;100026.78;;;1.19;100.00
7168;BME280;3625;51.762;14.320;2023-01-30T05:01:51;100025.09;;;1.27;100.00
7168;BME280;3625;51.762;14.320;2023-01-30T05:04:22;100002.56;;;1.32;100.00
7168;BME280;3625;51.762;14.320;2023-01-30T05:06:55;100013.00;;;1.35;100.00
7168;BME280;3625;51.762;14.320;2023-01-30T05:09:26;100011.31;;;1.38;100.00
7168;BME280;3625;51.762;14.320;2023-01-30T05:12:01;100015.66;;;1.38;100.00
7168;BME280;3625;51.762;14.320;2023-01-30T05:14:43;100006.16;;;1.46;100.00
7168;BME280;3625;51.762;14.320;2023-01-30T05:17:16;100000.06;;;1.48;100.00
7168;BME280;3625;51.762;14.320;2023-01-30T05:19:45;99994.03;;;1.54;100.00
7168;BME280;3625;51.762;14.320;2023-01-30T05:22:20;99992.34;;;1.62;100.00
7168;BME280;3625;51.762;14.320;2023-01-30T05:24:55;99990.63;;;1.67;100.00
7168;BME280;3625;51.762;14.320;2023-01-30T05:27:25;99973.25;;;1.66;100.00
7168;BME280;3625;51.762;14.320;2023-01-30T05:29:58;99968.91;;;1.68;100.00
7168;BME280;3625;51.762;14.320;2023-01-30T05:32:27;99962.84;;;1.71;100.00
7168;BME280;3625;51.762;14.320;2023-01-30T05:34:59;99942.88;;;1.74;100.00
7168;BME280;3625;51.762;14.320;2023-01-30T05:37:39;99955.06;;;1.78;100.00
7168;BME280;3625;51.762;14.320;2023-01-30T05:40:09;99958.53;;;1.77;100.00
7168;BME280;3625;51.762;14.320;2023-01-30T05:42:41;99949.84;;;1.78;100.00
7168;BME280;3625;51.762;14.320;2023-01-30T05:45:17;99949.84;;;1.78;100.00
7168;BME280;3625;51.762;14.320;2023-01-30T05:47:57;99928.13;;;1.79;100.00
7168;BME280;3625;51.762;14.320;2023-01-30T05:50:28;99932.47;;;1.79;100.00
7168;BME280;3625;51.762;14.320;2023-01-30T05:52:58;99929.88;;;1.83;100.00
7168;BME280;3625;51.762;14.320;2023-01-30T05:55:40;99928.19;;;1.90;100.00
7168;BME280;3625;51.762;14.320;2023-01-30T05:58:15;99937.72;;;1.91;100.00
7168;BME280;3625;51.762;14.320;2023-01-30T06:00:46;99926.47;;;1.95;100.00
7168;BME280;3625;51.762;14.320;2023-01-30T06:03:15;99929.06;;;1.95;100.00
7168;BME280;3625;51.762;14.320;2023-01-30T06:05:46;99928.22;;;1.98;100.00
7168;BME280;3625;51.762;14.320;2023-01-30T06:08:21;99934.28;;;2.01;100.00
7168;BME280;3625;51.762;14.320;2023-01-30T06:10:59;99920.41;;;2.05;100.00
7168;BME280;3625;51.762;14.320;2023-01-30T06:13:33;99917.78;;;2.04;100.00
7168;BME280;3625;51.762;14.320;2023-01-30T06:16:06;99920.41;;;2.05;100.00
7168;BME280;3625;51.762;14.320;2023-01-30T06:18:38;99915.19;;;2.07;100.00
7168;BME280;3625;51.762;14.320;2023-01-30T06:21:10;99921.28;;;2.06;100.00
7168;BME280;3625;51.762;14.320;2023-01-30T06:23:44;99916.06;;;2.07;100.00
7168;BME280;3625;51.762;14.320;2023-01-30T06:26:13;99908.25;;;2.10;100.00
7168;BME280;3625;51.762;14.320;2023-01-30T06:28:44;99899.56;;;2.11;100.00
7168;BME280;3625;51.762;14.320;2023-01-30T06:31:29;99901.28;;;2.09;100.00
7168;BME280;3625;51.762;14.320;2023-01-30T06:33:58;99903.88;;;2.08;100.00
7168;BME280;3625;51.762;14.320;2023-01-30T06:36:28;99905.63;;;2.06;100.00
7168;BME280;3625;51.762;14.320;2023-01-30T06:38:57;99905.59;;;2.01;100.00
7168;BME280;3625;51.762;14.320;2023-01-30T06:41:28;99900.41;;;2.04;100.00
7168;BME280;3625;51.762;14.320;2023-01-30T06:43:58;99899.53;;;2.04;100.00
7168;BME280;3625;51.762;14.320;2023-01-30T06:46:27;99913.44;;;2.09;100.00
7168;BME280;3625;51.762;14.320;2023-01-30T06:48:56;99896.91;;;2.08;100.00
7168;BME280;3625;51.762;14.320;2023-01-30T06:51:25;99904.75;;;2.10;100.00
7168;BME280;3625;51.762;14.320;2023-01-30T06:53:58;99911.72;;;2.12;100.00
7168;BME280;3625;51.762;14.320;2023-01-30T06:56:30;99898.69;;;2.11;100.00
7168;BME280;3625;51.762;14.320;2023-01-30T06:59:02;99910.88;;;2.15;100.00
7168;BME280;3625;51.762;14.320;2023-01-30T07:01:34;99903.94;;;2.15;100.00
7168;BME280;3625;51.762;14.320;2023-01-30T07:04:03;99898.69;;;2.20;100.00
7168;BME280;3625;51.762;14.320;2023-01-30T07:06:37;99897.81;;;2.10;100.00
7168;BME280;3625;51.762;14.320;2023-01-30T07:09:10;99880.44;;;2.15;100.00
7168;BME280;3625;51.762;14.320;2023-01-30T07:11:41;99872.59;;;2.14;100.00
7168;BME280;3625;51.762;14.320;2023-01-30T07:14:11;99890.00;;;2.15;100.00
7168;BME280;3625;51.762;14.320;2023-01-30T07:16:46;99886.50;;;2.17;100.00
7168;BME280;3625;51.762;14.320;2023-01-30T07:19:15;99864.78;;;2.12;100.00
7168;BME280;3625;51.762;14.320;2023-01-30T07:21:47;99875.22;;;2.15;100.00
7168;BME280;3625;51.762;14.320;2023-01-30T07:24:17;99880.44;;;2.18;100.00
7168;BME280;3625;51.762;14.320;2023-01-30T07:26:47;99883.06;;;2.23;100.00
7168;BME280;3625;51.762;14.320;2023-01-30T07:29:21;99882.19;;;2.22;100.00
7168;BME280;3625;51.762;14.320;2023-01-30T07:31:52;99879.59;;;2.22;100.00
7168;BME280;3625;51.762;14.320;2023-01-30T07:34:21;99866.53;;;2.22;100.00
7168;BME280;3625;51.762;14.320;2023-01-30T07:36:50;99868.25;;;2.26;100.00
7168;BME280;3625;51.762;14.320;2023-01-30T07:39:19;99848.28;;;2.30;100.00
7168;BME280;3625;51.762;14.320;2023-01-30T07:41:50;99874.38;;;2.30;100.00
7168;BME280;3625;51.762;14.320;2023-01-30T07:44:26;99865.69;;;2.33;100.00
7168;BME280;3625;51.762;14.320;2023-01-30T07:46:57;99876.13;;;2.39;100.00
7168;BME280;3625;51.762;14.320;2023-01-30T07:49:33;99859.59;;;2.37;100.00
7168;BME280;3625;51.762;14.320;2023-01-30T07:52:04;99868.28;;;2.28;100.00
7168;BME280;3625;51.762;14.320;2023-01-30T07:54:37;99863.94;;;2.28;100.00
7168;BME280;3625;51.762;14.320;2023-01-30T07:57:29;99869.16;;;2.24;100.00
7168;BME280;3625;51.762;14.320;2023-01-30T08:00:02;99863.03;;;2.14;100.00
7168;BME280;3625;51.762;14.320;2023-01-30T08:02:35;99870.88;;;2.16;100.00
7168;BME280;3625;51.762;14.320;2023-01-30T08:05:09;99858.69;;;2.21;100.00
7168;BME280;3625;51.762;14.320;2023-01-30T08:07:40;99855.22;;;2.22;100.00
7168;BME280;3625;51.762;14.320;2023-01-30T08:10:18;99842.16;;;2.26;100.00
7168;BME280;3625;51.762;14.320;2023-01-30T08:12:53;99850.00;;;2.28;100.00
7168;BME280;3625;51.762;14.320;2023-01-30T08:15:26;99850.91;;;2.33;100.00
7168;BME280;3625;51.762;14.320;2023-01-30T08:18:06;99856.09;;;2.35;100.00
7168;BME280;3625;51.762;14.320;2023-01-30T08:20:37;99845.66;;;2.42;100.00
7168;BME280;3625;51.762;14.320;2023-01-30T08:23:11;99850.88;;;2.44;100.00
7168;BME280;3625;51.762;14.320;2023-01-30T08:25:47;99838.72;;;2.47;100.00
7168;BME280;3625;51.762;14.320;2023-01-30T08:28:22;99836.97;;;2.57;100.00
7168;BME280;3625;51.762;14.320;2023-01-30T08:31:16;99844.81;;;2.58;100.00
7168;BME280;3625;51.762;14.320;2023-01-30T08:33:47;99853.50;;;2.63;100.00
7168;BME280;3625;51.762;14.320;2023-01-30T08:36:23;99836.97;;;2.74;100.00
7168;BME280;3625;51.762;14.320;2023-01-30T08:38:57;99841.31;;;2.87;100.00
7168;BME280;3625;51.762;14.320;2023-01-30T08:41:27;99835.19;;;2.97;100.00
7168;BME280;3625;51.762;14.320;2023-01-30T08:43:58;99827.34;;;3.04;100.00
7168;BME280;3625;51.762;14.320;2023-01-30T08:46:32;99831.69;;;3.09;100.00
7168;BME280;3625;51.762;14.320;2023-01-30T08:49:10;99809.91;;;3.16;100.00
7168;BME280;3625;51.762;14.320;2023-01-30T08:51:39;99824.69;;;3.23;100.00
7168;BME280;3625;51.762;14.320;2023-01-30T08:54:11;99805.50;;;3.36;100.00
7168;BME280;3625;51.762;14.320;2023-01-30T08:56:40;99752.41;;;3.17;100.00
7168;BME280;3625;51.762;14.320;2023-01-30T08:59:10;99802.84;;;3.37;100.00
7168;BME280;3625;51.762;14.320;2023-01-30T09:01:41;99800.22;;;3.45;100.00
7168;BME280;3625;51.762;14.320;2023-01-30T09:04:10;99807.16;;;3.49;100.00
7168;BME280;3625;51.762;14.320;2023-01-30T09:06:48;99794.91;;;3.62;100.00
7168;BME280;3625;51.762;14.320;2023-01-30T09:09:21;99791.22;;;3.98;100.00
7168;BME280;3625;51.762;14.320;2023-01-30T09:11:51;99794.56;;;4.21;100.00
7168;BME280;3625;51.762;14.320;2023-01-30T09:14:24;99801.25;;;4.57;100.00
7168;BME280;3625;51.762;14.320;2023-01-30T09:17:02;99782.84;;;4.66;100.00
7168;BME280;3625;51.762;14.320;2023-01-30T09:19:41;99796.09;;;4.45;100.00
7168;BME280;3625;51.762;14.320;2023-01-30T09:22:10;99790.72;;;4.63;100.00
7168;BME280;3625;51.762;14.320;2023-01-30T09:24:42;99803.56;;;4.90;100.00
7168;BME280;3625;51.762;14.320;2023-01-30T09:27:19;99803.47;;;4.98;100.00
7168;BME280;3625;51.762;14.320;2023-01-30T09:29:48;99798.25;;;4.97;100.00
7168;BME280;3625;51.762;14.320;2023-01-30T09:32:37;99797.09;;;5.22;100.00
7168;BME280;3625;51.762;14.320;2023-01-30T09:35:08;99796.53;;;5.67;100.00
7168;BME280;3625;51.762;14.320;2023-01-30T09:37:48;99784.28;;;5.69;100.00
7168;BME280;3625;51.762;14.320;2023-01-30T09:40:27;99744.84;;;5.05;100.00
7168;BME280;3625;51.762;14.320;2023-01-30T09:43:17;99790.34;;;5.01;100.00
7168;BME280;3625;51.762;14.320;2023-01-30T09:46:02;99795.72;;;4.86;100.00
7168;BME280;3625;51.762;14.320;2023-01-30T09:49:03;99738.41;;;4.52;100.00
7168;BME280;3625;51.762;14.320;2023-01-30T09:51:47;99763.53;;;4.75;100.00
7168;BME280;3625;51.762;14.320;2023-01-30T09:54:21;99784.59;;;4.61;100.00
7168;BME280;3625;51.762;14.320;2023-01-30T09:57:01;99792.53;;;4.55;100.00
7168;BME280;3625;51.762;14.320;2023-01-30T10:00:04;99544.91;;;3.44;100.00
7168;BME280;3625;51.762;14.320;2023-01-30T10:02:56;99793.59;;;5.23;100.00
7168;BME280;3625;51.762;14.320;2023-01-30T10:05:37;99804.09;;;5.21;100.00
7168;BME280;3625;51.762;14.320;2023-01-30T10:08:38;99797.09;;;5.20;100.00
7168;BME280;3625;51.762;14.320;2023-01-30T10:11:27;99799.00;;;5.06;100.00
7168;BME280;3625;51.762;14.320;2023-01-30T10:14:28;99805.03;;;5.14;100.00
7168;BME280;3625;51.762;14.320;2023-01-30T10:17:19;99816.41;;;5.16;100.00
7168;BME280;3625;51.762;14.320;2023-01-30T10:20:25;99555.13;;;3.67;100.00
7168;BME280;3625;51.762;14.320;2023-01-30T10:23:24;99777.38;;;4.87;100.00
7168;BME280;3625;51.762;14.320;2023-01-30T10:26:02;99811.16;;;5.13;100.00
7168;BME280;3625;51.762;14.320;2023-01-30T10:28:43;99771.16;;;4.98;100.00
7168;BME280;3625;51.762;14.320;2023-01-30T10:31:43;99824.28;;;5.13;100.00
7168;BME280;3625;51.762;14.320;2023-01-30T10:34:32;99677.63;;;4.20;100.00
7168;BME280;3625;51.762;14.320;2023-01-30T10:37:28;99805.31;;;4.88;100.00
7168;BME280;3625;51.762;14.320;2023-01-30T10:40:04;99812.38;;;4.80;100.00
7168;BME280;3625;51.762;14.320;2023-01-30T10:42:51;99807.22;;;4.73;100.00
7168;BME280;3625;51.762;14.320;2023-01-30T10:45:33;99800.19;;;4.76;100.00
7168;BME280;3625;51.762;14.320;2023-01-30T10:48:44;99655.41;;;3.64;100.00
7168;BME280;3625;51.762;14.320;2023-01-30T10:51:39;99678.97;;;3.63;100.00
7168;BME280;3625;51.762;14.320;2023-01-30T10:54:20;99806.66;;;4.34;100.00
7168;BME280;3625;51.762;14.320;2023-01-30T10:57:14;99717.22;;;3.74;100.00
7168;BME280;3625;51.762;14.320;2023-01-30T10:59:54;99528.84;;;2.75;100.00
7168;BME280;3625;51.762;14.320;2023-01-30T11:02:56;99799.53;;;4.51;100.00
7168;BME280;3625;51.762;14.320;2023-01-30T11:05:43;99555.38;;;3.38;100.00
7168;BME280;3625;51.762;14.320;2023-01-30T11:08:24;99704.16;;;4.75;100.00
7168;BME280;3625;51.762;14.320;2023-01-30T11:10:55;99789.28;;;5.19;100.00
7168;BME280;3625;51.762;14.320;2023-01-30T11:13:32;99777.06;;;5.18;100.00
7168;BME280;3625;51.762;14.320;2023-01-30T11:16:07;99774.28;;;5.28;100.00
7168;BME280;3625;51.762;14.320;2023-01-30T11:18:44;99782.16;;;5.28;100.00
7168;BME280;3625;51.762;14.320;2023-01-30T11:21:36;99786.25;;;5.51;100.00
7168;BME280;3625;51.762;14.320;2023-01-30T11:24:15;99676.13;;;4.80;100.00
7168;BME280;3625;51.762;14.320;2023-01-30T11:26:47;99763.84;;;5.25;100.00
7168;BME280;3625;51.762;14.320;2023-01-30T11:29:27;99739.41;;;5.22;100.00
7168;BME280;3625;51.762;14.320;2023-01-30T11:32:02;99659.34;;;4.95;100.00
7168;BME280;3625;51.762;14.320;2023-01-30T11:34:33;99775.78;;;5.49;100.00
7168;BME280;3625;51.762;14.320;2023-01-30T11:37:14;99720.47;;;5.00;100.00
7168;BME280;3625;51.762;14.320;2023-01-30T11:39:51;99718.94;;;4.78;100.00
7168;BME280;3625;51.762;14.320;2023-01-30T11:42:32;99760.50;;;5.11;100.00
7168;BME280;3625;51.762;14.320;2023-01-30T11:45:12;99745.69;;;5.09;100.00
7168;BME280;3625;51.762;14.320;2023-01-30T11:47:52;99472.56;;;3.41;100.00
7168;BME280;3625;51.762;14.320;2023-01-30T11:50:41;99694.41;;;4.85;100.00
7168;BME280;3625;51.762;14.320;2023-01-30T11:53:28;99637.50;;;4.96;100.00
7168;BME280;3625;51.762;14.320;2023-01-30T11:56:07;99688.75;;;5.20;100.00
7168;BME280;3625;51.762;14.320;2023-01-30T11:58:41;99645.66;;;4.72;100.00
7168;BME280;3625;51.762;14.320;2023-01-30T12:01:16;99711.66;;;5.04;100.00
7168;BME280;3625;51.762;14.320;2023-01-30T12:03:52;99695.91;;;5.07;100.00
7168;BME280;3625;51.762;14.320;2023-01-30T12:06:31;99420.22;;;3.46;100.00
7168;BME280;3625;51.762;14.320;2023-01-30T12:09:03;99699.41;;;5.05;100.00
7168;BME280;3625;51.762;14.320;2023-01-30T12:11:43;99691.75;;;5.54;100.00
7168;BME280;3625;51.762;14.320;2023-01-30T12:14:31;99680.06;;;5.78;100.00
7168;BME280;3625;51.762;14.320;2023-01-30T12:17:15;99550.75;;;5.14;100.00
7168;BME280;3625;51.762;14.320;2023-01-30T12:20:04;99505.34;;;5.12;100.00
7168;BME280;3625;51.762;14.320;2023-01-30T12:22:50;99681.34;;;6.07;100.00
7168;BME280;3625;51.762;14.320;2023-01-30T12:25:40;99444.88;;;4.68;100.00
7168;BME280;3625;51.762;14.320;2023-01-30T12:28:19;99676.09;;;6.09;100.00
7168;BME280;3625;51.762;14.320;2023-01-30T12:31:01;99537.66;;;5.13;100.00
7168;BME280;3625;51.762;14.320;2023-01-30T12:33:41;99683.22;;;6.50;100.00
7168;BME280;3625;51.762;14.320;2023-01-30T12:36:26;99494.50;;;5.83;100.00
7168;BME280;3625;51.762;14.320;2023-01-30T12:39:17;99678.03;;;6.93;100.00
7168;BME280;3625;51.762;14.320;2023-01-30T12:42:14;99673.94;;;7.22;100.00
7168;BME280;3625;51.762;14.320;2023-01-30T12:45:17;99667.75;;;7.24;100.00
7168;BME280;3625;51.762;14.320;2023-01-30T12:48:24;99656.84;;;7.41;100.00
7168;BME280;3625;51.762;14.320;2023-01-30T12:51:11;99649.25;;;7.27;100.00
7168;BME280;3625;51.762;14.320;2023-01-30T12:53:59;99657.41;;;7.16;100.00
7168;BME280;3625;51.762;14.320;2023-01-30T12:57:07;99594.53;;;6.63;100.00
7168;BME280;3625;51.762;14.320;2023-01-30T12:59:53;99607.81;;;6.57;100.00
7168;BME280;3625;51.762;14.320;2023-01-30T13:02:53;99431.97;;;5.60;100.00
7168;BME280;3625;51.762;14.320;2023-01-30T13:05:49;99671.50;;;6.69;100.00
7168;BME280;3625;51.762;14.320;2023-01-30T13:08:53;99655.00;;;6.61;100.00
7168;BME280;3625;51.762;14.320;2023-01-30T13:11:48;99668.28;;;6.55;100.00
7168;BME280;3625;51.762;14.320;2023-01-30T13:14:35;99673.78;;;6.40;100.00
7168;BME280;3625;51.762;14.320;2023-01-30T13:17:22;99666.84;;;6.37;100.00
7168;BME280;3625;51.762;14.320;2023-01-30T13:20:11;99607.19;;;5.96;100.00
7168;BME280;3625;51.762;14.320;2023-01-30T13:23:30;99676.34;;;6.44;100.00
7168;BME280;3625;51.762;14.320;2023-01-30T13:26:01;99674.84;;;6.30;100.00
7168;BME280;3625;51.762;14.320;2023-01-30T13:28:39;99672.13;;;6.36;100.00
7168;BME280;3625;51.762;14.320;2023-01-30T13:31:23;99681.78;;;6.34;100.00
7168;BME280;3625;51.762;14.320;2023-01-30T13:34:08;99669.59;;;6.30;100.00
7168;BME280;3625;51.762;14.320;2023-01-30T13:36:48;99669.81;;;6.18;100.00
7168;BME280;3625;51.762;14.320;2023-01-30T13:39:38;99613.66;;;5.71;100.00
7168;BME280;3625;51.762;14.320;2023-01-30T13:42:23;99650.66;;;6.13;100.00
7168;BME280;3625;51.762;14.320;2023-01-30T13:45:00;99642.38;;;5.80;100.00
7168;BME280;3625;51.762;14.320;2023-01-30T13:47:47;99631.50;;;5.51;100.00
7168;BME280;3625;51.762;14.320;2023-01-30T13:50:58;99616.25;;;5.19;100.00
7168;BME280;3625;51.762;14.320;2023-01-30T13:53:46;99639.31;;;5.54;100.00
7168;BME280;3625;51.762;14.320;2023-01-30T13:56:25;99640.38;;;5.41;100.00
7168;BME280;3625;51.762;14.320;2023-01-30T13:59:24;99633.38;;;5.41;100.00
7168;BME280;3625;51.762;14.320;2023-01-30T14:02:22;99506.16;;;4.58;100.00
7168;BME280;3625;51.762;14.320;2023-01-30T14:04:57;99636.03;;;5.40;100.00
7168;BME280;3625;51.762;14.320;2023-01-30T14:07:37;99649.38;;;5.24;100.00
7168;BME280;3625;51.762;14.320;2023-01-30T14:10:17;99636.19;;;5.29;100.00
7168;BME280;3625;51.762;14.320;2023-01-30T14:12:54;99643.84;;;5.44;100.00
7168;BME280;3625;51.762;14.320;2023-01-30T14:15:34;99639.28;;;5.55;100.00
7168;BME280;3625;51.762;14.320;2023-01-30T14:18:06;99632.97;;;5.70;100.00